sensor_id;sensor_type;location;lat;lon;timestamp;pressure;altitude;pressure_sealevel;temperature;humidity
65376;BME280;51976;47.332;9.404;2023-01-15T00:02:06;92046.31;;;17.83;38.50
65376;BME280;51976;47.332;9.404;2023-01-15T00:04:31;92055.75;;;17.85;38.42
65376;BME280;51976;47.332;9.404;2023-01-15T00:06:57;92052.56;;;17.83;38.46
65376;BME280;51976;47.332;9.404;2023-01-15T00:09:22;92054.16;;;17.84;38.44
65376;BME280;51976;47.332;9.404;2023-01-15T00:11:48;92058.03;;;17.83;38.32
65376;BME280;51976;47.332;9.404;2023-01-15T00:14:13;92049.50;;;17.85;38.37
65376;BME280;51976;47.332;9.404;2023-01-15T00:16:38;92039.72;;;17.84;38.31
65376;BME280;51976;47.332;9.404;2023-01-15T00:19:05;92045.97;;;17.84;38.58
65376;BME280;51976;47.332;9.404;2023-01-15T00:21:33;92028.13;;;17.87;38.54
65376;BME280;51976;47.332;9.404;2023-01-15T00:23:58;92035.88;;;17.85;38.25
65376;BME280;51976;47.332;9.404;2023-01-15T00:26:43;92028.03;;;17.83;38.62
65376;BME280;51976;47.332;9.404;2023-01-15T00:29:30;92030.75;;;17.83;38.50
65376;BME280;51976;47.332;9.404;2023-01-15T00:31:59;92020.66;;;17.84;38.35
65376;BME280;51976;47.332;9.404;2023-01-15T00:34:26;92020.53;;;17.80;38.60
65376;BME280;51976;47.332;9.404;2023-01-15T00:36:52;92017.81;;;17.80;38.38
65376;BME280;51976;47.332;9.404;2023-01-15T00:39:17;92008.84;;;17.80;38.50
65376;BME280;51976;47.332;9.404;2023-01-15T00:41:43;92009.75;;;17.84;38.50
65376;BME280;51976;47.332;9.404;2023-01-15T00:44:08;92011.66;;;17.83;38.39
65376;BME280;51976;47.332;9.404;2023-01-15T00:46:34;92008.16;;;17.83;38.21
65376;BME280;51976;47.332;9.404;2023-01-15T00:49:00;92001.91;;;17.82;38.63
65376;BME280;51976;47.332;9.404;2023-01-15T00:51:25;92009.63;;;17.80;38.51
65376;BME280;51976;47.332;9.404;2023-01-15T00:53:51;91999.88;;;17.79;38.63
65376;BME280;51976;47.332;9.404;2023-01-15T00:56:16;91996.47;;;17.82;38.61
65376;BME280;51976;47.332;9.404;2023-01-15T00:58:41;92007.34;;;17.82;38.31
65376;BME280;51976;47.332;9.404;2023-01-15T01:01:07;92003.84;;;17.82;38.58
65376;BME280;51976;47.332;9.404;2023-01-15T01:03:32;92001.81;;;17.79;38.61
65376;BME280;51976;47.332;9.404;2023-01-15T01:06:01;91984.75;;;17.82;38.54
65376;BME280;51976;47.332;9.404;2023-01-15T01:08:27;91986.34;;;17.83;38.38
65376;BME280;51976;47.332;9.404;2023-01-15T01:11:06;92001.47;;;17.80;38.48
65376;BME280;51976;47.332;9.404;2023-01-15T01:13:33;92006.03;;;17.76;38.49
65376;BME280;51976;47.332;9.404;2023-01-15T01:15:58;92011.22;;;17.81;38.54
65376;BME280;51976;47.332;9.404;2023-01-15T01:18:24;92014.28;;;17.80;38.56
65376;BME280;51976;47.332;9.404;2023-01-15T01:20:50;92019.41;;;17.81;38.59
65376;BME280;51976;47.332;9.404;2023-01-15T01:23:15;92008.84;;;17.80;38.63
65376;BME280;51976;47.332;9.404;2023-01-15T01:25:40;92001.47;;;17.80;38.92
65376;BME280;51976;47.332;9.404;2023-01-15T01:28:06;92009.75;;;17.84;38.53
65376;BME280;51976;47.332;9.404;2023-01-15T01:30:31;92001.56;;;17.84;38.74
65376;BME280;51976;47.332;9.404;2023-01-15T01:32:56;91993.84;;;17.86;38.52
65376;BME280;51976;47.332;9.404;2023-01-15T01:35:22;91986.34;;;17.83;38.39
65376;BME280;51976;47.332;9.404;2023-01-15T01:37:49;91985.44;;;17.79;38.44
65376;BME280;51976;47.332;9.404;2023-01-15T01:40:15;91997.53;;;17.78;38.34
65376;BME280;51976;47.332;9.404;2023-01-15T01:42:40;91985.09;;;17.80;38.65
65376;BME280;51976;47.332;9.404;2023-01-15T01:45:27;91993.38;;;17.84;38.50
65376;BME280;51976;47.332;9.404;2023-01-15T01:47:56;91987.47;;;17.82;38.41
65376;BME280;51976;47.332;9.404;2023-01-15T01:50:23;91992.94;;;17.82;38.53
65376;BME280;51976;47.332;9.404;2023-01-15T01:52:55;91982.38;;;17.80;38.59
65376;BME280;51976;47.332;9.404;2023-01-15T01:55:23;91981.69;;;17.83;38.50
65376;BME280;51976;47.332;9.404;2023-01-15T01:57:51;91986.34;;;17.83;38.56
65376;BME280;51976;47.332;9.404;2023-01-15T02:00:19;91999.06;;;17.79;38.59
65376;BME280;51976;47.332;9.404;2023-01-15T02:02:46;91981.22;;;17.81;38.37
65376;BME280;51976;47.332;9.404;2023-01-15T02:05:16;91945.09;;;17.84;38.46
65376;BME280;51976;47.332;9.404;2023-01-15T02:07:44;91946.16;;;17.80;38.54
65376;BME280;51976;47.332;9.404;2023-01-15T02:10:15;91962.16;;;17.81;38.58
65376;BME280;51976;47.332;9.404;2023-01-15T02:12:41;91952.84;;;17.82;38.64
65376;BME280;51976;47.332;9.404;2023-01-15T02:15:14;91945.78;;;17.81;38.61
65376;BME280;51976;47.332;9.404;2023-01-15T02:17:47;91934.91;;;17.81;38.43
65376;BME280;51976;47.332;9.404;2023-01-15T02:20:40;91936.03;;;17.80;38.54
65376;BME280;51976;47.332;9.404;2023-01-15T02:23:25;91942.63;;;17.79;38.43
65376;BME280;51976;47.332;9.404;2023-01-15T02:26:04;91937.09;;;17.76;38.49
65376;BME280;51976;47.332;9.404;2023-01-15T02:28:33;91934.91;;;17.81;38.69
65376;BME280;51976;47.332;9.404;2023-01-15T02:31:16;91943.06;;;17.81;38.64
65376;BME280;51976;47.332;9.404;2023-01-15T02:33:53;91914.66;;;17.82;38.53
65376;BME280;51976;47.332;9.404;2023-01-15T02:36:22;91898.59;;;17.77;38.58
65376;BME280;51976;47.332;9.404;2023-01-15T02:38:50;91911.50;;;17.80;38.42
65376;BME280;51976;47.332;9.404;2023-01-15T02:41:21;91896.72;;;17.81;38.36
65376;BME280;51976;47.332;9.404;2023-01-15T02:43:51;91873.34;;;17.80;38.42
65376;BME280;51976;47.332;9.404;2023-01-15T02:46:20;91882.31;;;17.81;38.55
65376;BME280;51976;47.332;9.404;2023-01-15T02:48:51;91895.13;;;17.80;38.52
65376;BME280;51976;47.332;9.404;2023-01-15T02:51:25;91870.16;;;17.78;38.44
65376;BME280;51976;47.332;9.404;2023-01-15T02:53:56;91861.97;;;17.78;38.64
65376;BME280;51976;47.332;9.404;2023-01-15T02:56:25;91842.13;;;17.78;38.55
65376;BME280;51976;47.332;9.404;2023-01-15T02:58:55;91869.03;;;17.79;38.50
65376;BME280;51976;47.332;9.404;2023-01-15T03:01:28;91858.56;;;17.81;38.34
65376;BME280;51976;47.332;9.404;2023-01-15T03:04:06;91848.34;;;17.78;38.65
65376;BME280;51976;47.332;9.404;2023-01-15T03:06:47;91855.50;;;17.83;38.47
65376;BME280;51976;47.332;9.404;2023-01-15T03:09:14;91850.38;;;17.81;38.78
65376;BME280;51976;47.332;9.404;2023-01-15T03:11:47;91840.28;;;17.82;38.57
65376;BME280;51976;47.332;9.404;2023-01-15T03:14:20;91837.91;;;17.80;38.67
65376;BME280;51976;47.332;9.404;2023-01-15T03:16:56;91844.50;;;17.79;38.71
65376;BME280;51976;47.332;9.404;2023-01-15T03:19:42;91849.94;;;17.79;38.58
65376;BME280;51976;47.332;9.404;2023-01-15T03:22:22;91834.81;;;17.82;38.43
65376;BME280;51976;47.332;9.404;2023-01-15T03:25:12;91844.13;;;17.81;38.52
65376;BME280;51976;47.332;9.404;2023-01-15T03:27:40;91835.97;;;17.81;38.76
65376;BME280;51976;47.332;9.404;2023-01-15T03:30:11;91829.72;;;17.80;38.58
65376;BME280;51976;47.332;9.404;2023-01-15T03:32:37;91844.50;;;17.79;38.60
65376;BME280;51976;47.332;9.404;2023-01-15T03:35:04;91827.34;;;17.79;38.73
65376;BME280;51976;47.332;9.404;2023-01-15T03:37:30;91827.44;;;17.82;38.72
65376;BME280;51976;47.332;9.404;2023-01-15T03:39:57;91835.97;;;17.81;38.49
65376;BME280;51976;47.332;9.404;2023-01-15T03:42:39;91834.38;;;17.80;38.72
65376;BME280;51976;47.332;9.404;2023-01-15T03:45:21;91843.34;;;17.80;38.49
65376;BME280;51976;47.332;9.404;2023-01-15T03:48:10;91874.13;;;17.81;38.60
65376;BME280;51976;47.332;9.404;2023-01-15T03:51:02;91871.34;;;17.77;38.70
65376;BME280;51976;47.332;9.404;2023-01-15T03:53:44;91850.72;;;17.80;38.62
65376;BME280;51976;47.332;9.404;2023-01-15T03:56:28;91831.31;;;17.81;38.56
65376;BME280;51976;47.332;9.404;2023-01-15T03:58:59;91828.84;;;17.76;38.60
65376;BME280;51976;47.332;9.404;2023-01-15T04:01:32;91818.81;;;17.80;38.60
65376;BME280;51976;47.332;9.404;2023-01-15T04:04:00;91826.53;;;17.78;38.75
65376;BME280;51976;47.332;9.404;2023-01-15T04:06:28;91827.34;;;17.79;38.73
65376;BME280;51976;47.332;9.404;2023-01-15T04:08:54;91830.84;;;17.79;38.99
65376;BME280;51976;47.332;9.404;2023-01-15T04:11:22;91840.56;;;17.77;38.61
65376;BME280;51976;47.332;9.404;2023-01-15T04:13:49;91847.59;;;17.78;38.65
65376;BME280;51976;47.332;9.404;2023-01-15T04:16:16;91854.59;;;17.79;38.92
65376;BME280;51976;47.332;9.404;2023-01-15T04:18:45;91861.97;;;17.78;38.81
65376;BME280;51976;47.332;9.404;2023-01-15T04:21:10;91867.44;;;17.78;38.58
65376;BME280;51976;47.332;9.404;2023-01-15T04:23:36;91858.50;;;17.78;38.64
65376;BME280;51976;47.332;9.404;2023-01-15T04:26:01;91853.81;;;17.78;38.75
65376;BME280;51976;47.332;9.404;2023-01-15T04:28:27;91848.72;;;17.77;39.13
65376;BME280;51976;47.332;9.404;2023-01-15T04:30:56;91862.38;;;17.77;38.73
65376;BME280;51976;47.332;9.404;2023-01-15T04:33:21;91849.09;;;17.75;38.86
65376;BME280;51976;47.332;9.404;2023-01-15T04:35:47;91848.34;;;17.78;38.86
65376;BME280;51976;47.332;9.404;2023-01-15T04:38:12;91839.75;;;17.76;38.84
65376;BME280;51976;47.332;9.404;2023-01-15T04:40:37;91849.09;;;17.75;38.64
65376;BME280;51976;47.332;9.404;2023-01-15T04:43:23;91830.69;;;17.72;38.65
65376;BME280;51976;47.332;9.404;2023-01-15T04:46:08;91849.09;;;17.75;38.68
65376;BME280;51976;47.332;9.404;2023-01-15T04:48:33;91847.84;;;17.73;38.73
65376;BME280;51976;47.332;9.404;2023-01-15T04:51:03;91844.78;;;17.74;38.73
65376;BME280;51976;47.332;9.404;2023-01-15T04:53:28;91845.38;;;17.68;39.02
65376;BME280;51976;47.332;9.404;2023-01-15T04:56:00;91853.66;;;17.71;39.07
65376;BME280;51976;47.332;9.404;2023-01-15T04:58:26;91845.56;;;17.75;38.80
65376;BME280;51976;47.332;9.404;2023-01-15T05:00:51;91844.78;;;17.74;38.90
65376;BME280;51976;47.332;9.404;2023-01-15T05:03:17;91841.59;;;17.72;38.85
65376;BME280;51976;47.332;9.404;2023-01-15T05:05:42;91846.25;;;17.72;38.98
65376;BME280;51976;47.332;9.404;2023-01-15T05:08:07;91852.84;;;17.71;39.05
65376;BME280;51976;47.332;9.404;2023-01-15T05:10:33;91852.94;;;17.74;38.84
65376;BME280;51976;47.332;9.404;2023-01-15T05:12:58;91838.88;;;17.72;38.81
65376;BME280;51976;47.332;9.404;2023-01-15T05:15:24;91843.53;;;17.72;38.68
65376;BME280;51976;47.332;9.404;2023-01-15T05:17:49;91843.09;;;17.70;38.87
65376;BME280;51976;47.332;9.404;2023-01-15T05:20:14;91846.97;;;17.69;38.88
65376;BME280;51976;47.332;9.404;2023-01-15T05:22:40;91853.66;;;17.71;38.93
65376;BME280;51976;47.332;9.404;2023-01-15T05:25:05;91843.88;;;17.70;38.90
65376;BME280;51976;47.332;9.404;2023-01-15T05:27:31;91854.09;;;17.73;38.87
65376;BME280;51976;47.332;9.404;2023-01-15T05:29:56;91854.78;;;17.70;38.75
65376;BME280;51976;47.332;9.404;2023-01-15T05:32:21;91857.50;;;17.70;38.97
65376;BME280;51976;47.332;9.404;2023-01-15T05:34:47;91862.97;;;17.70;38.89
65376;BME280;51976;47.332;9.404;2023-01-15T05:37:12;91859.09;;;17.71;38.80
65376;BME280;51976;47.332;9.404;2023-01-15T05:39:37;91863.06;;;17.74;38.95
65376;BME280;51976;47.332;9.404;2023-01-15T05:42:03;91870.78;;;17.72;38.83
65376;BME280;51976;47.332;9.404;2023-01-15T05:44:29;91876.16;;;17.68;39.11
65376;BME280;51976;47.332;9.404;2023-01-15T05:46:58;91868.31;;;17.67;38.89
65376;BME280;51976;47.332;9.404;2023-01-15T05:49:25;91867.19;;;17.68;38.90
65376;BME280;51976;47.332;9.404;2023-01-15T05:51:52;91859.19;;;17.75;38.79
65376;BME280;51976;47.332;9.404;2023-01-15T05:54:23;91855.56;;;17.71;39.07
65376;BME280;51976;47.332;9.404;2023-01-15T05:56:49;91858.31;;;17.71;38.79
65376;BME280;51976;47.332;9.404;2023-01-15T05:59:19;91857.94;;;17.72;39.08
65376;BME280;51976;47.332;9.404;2023-01-15T06:01:45;91860.69;;;17.72;39.03
65376;BME280;51976;47.332;9.404;2023-01-15T06:04:11;91857.50;;;17.70;39.07
65376;BME280;51976;47.332;9.404;2023-01-15T06:06:41;91853.66;;;17.71;38.85
65376;BME280;51976;47.332;9.404;2023-01-15T06:09:07;91864.44;;;17.68;38.99
65376;BME280;51976;47.332;9.404;2023-01-15T06:11:32;91857.84;;;17.69;38.91
65376;BME280;51976;47.332;9.404;2023-01-15T06:13:58;91868.31;;;17.67;39.02
65376;BME280;51976;47.332;9.404;2023-01-15T06:16:23;91861.81;;;17.71;38.90
65376;BME280;51976;47.332;9.404;2023-01-15T06:18:49;91853.41;;;17.64;39.04
65376;BME280;51976;47.332;9.404;2023-01-15T06:21:15;91848.09;;;17.68;38.85
65376;BME280;51976;47.332;9.404;2023-01-15T06:23:41;91860.59;;;17.69;38.99
65376;BME280;51976;47.332;9.404;2023-01-15T06:26:14;91856.28;;;17.68;39.12
65376;BME280;51976;47.332;9.404;2023-01-15T06:28:40;91846.59;;;17.70;38.86
65376;BME280;51976;47.332;9.404;2023-01-15T06:31:08;91868.41;;;17.70;38.80
65376;BME280;51976;47.332;9.404;2023-01-15T06:33:34;91857.50;;;17.70;38.84
65376;BME280;51976;47.332;9.404;2023-01-15T06:36:04;91848.53;;;17.70;38.97
65376;BME280;51976;47.332;9.404;2023-01-15T06:38:30;91843.44;;;17.68;39.14
65376;BME280;51976;47.332;9.404;2023-01-15T06:40:58;91841.84;;;17.67;39.07
65376;BME280;51976;47.332;9.404;2023-01-15T06:43:23;91825.06;;;17.65;39.16
65376;BME280;51976;47.332;9.404;2023-01-15T06:46:09;91822.06;;;17.70;38.81
65376;BME280;51976;47.332;9.404;2023-01-15T06:48:54;91834.13;;;17.69;38.92
65376;BME280;51976;47.332;9.404;2023-01-15T06:51:19;91812.31;;;17.69;39.12
65376;BME280;51976;47.332;9.404;2023-01-15T06:53:46;91819.59;;;17.65;39.11
65376;BME280;51976;47.332;9.404;2023-01-15T06:56:15;91834.03;;;17.66;39.17
65376;BME280;51976;47.332;9.404;2023-01-15T06:58:41;91827.00;;;17.65;39.02
65376;BME280;51976;47.332;9.404;2023-01-15T07:01:09;91819.69;;;17.69;38.91
65376;BME280;51976;47.332;9.404;2023-01-15T07:03:35;91834.69;;;17.63;38.97
65376;BME280;51976;47.332;9.404;2023-01-15T07:06:05;91840.25;;;17.66;39.02
65376;BME280;51976;47.332;9.404;2023-01-15T07:08:31;91828.09;;;17.64;39.02
65376;BME280;51976;47.332;9.404;2023-01-15T07:11:01;91822.34;;;17.65;39.03
65376;BME280;51976;47.332;9.404;2023-01-15T07:13:27;91812.66;;;17.68;39.11
65376;BME280;51976;47.332;9.404;2023-01-15T07:15:53;91819.69;;;17.69;38.94
65376;BME280;51976;47.332;9.404;2023-01-15T07:18:18;91814.59;;;17.67;38.93
65376;BME280;51976;47.332;9.404;2023-01-15T07:20:44;91803.78;;;17.71;38.88
65376;BME280;51976;47.332;9.404;2023-01-15T07:23:09;91797.44;;;17.67;38.93
65376;BME280;51976;47.332;9.404;2023-01-15T07:25:34;91790.41;;;17.66;38.95
65376;BME280;51976;47.332;9.404;2023-01-15T07:28:00;91785.75;;;17.66;39.17
65376;BME280;51976;47.332;9.404;2023-01-15T07:30:25;91768.63;;;17.66;38.82
65376;BME280;51976;47.332;9.404;2023-01-15T07:32:50;91759.19;;;17.63;39.17
65376;BME280;51976;47.332;9.404;2023-01-15T07:35:16;91759.28;;;17.67;38.99
65376;BME280;51976;47.332;9.404;2023-01-15T07:37:41;91760.75;;;17.64;39.16
65376;BME280;51976;47.332;9.404;2023-01-15T07:40:08;91768.94;;;17.64;38.80
65376;BME280;51976;47.332;9.404;2023-01-15T07:42:34;91756.44;;;17.63;39.06
65376;BME280;51976;47.332;9.404;2023-01-15T07:45:19;91744.31;;;17.60;39.13
65376;BME280;51976;47.332;9.404;2023-01-15T07:48:08;91740.88;;;17.64;39.08
65376;BME280;51976;47.332;9.404;2023-01-15T07:50:54;91734.22;;;17.61;39.23
65376;BME280;51976;47.332;9.404;2023-01-15T07:53:19;91734.31;;;17.65;39.19
65376;BME280;51976;47.332;9.404;2023-01-15T07:55:45;91732.63;;;17.60;39.21
65376;BME280;51976;47.332;9.404;2023-01-15T07:58:10;91728.75;;;17.61;39.07
65376;BME280;51976;47.332;9.404;2023-01-15T08:00:36;91726.16;;;17.65;39.13
65376;BME280;51976;47.332;9.404;2023-01-15T08:03:01;91724.44;;;17.60;39.04
65376;BME280;51976;47.332;9.404;2023-01-15T08:05:27;91722.59;;;17.64;39.09
65376;BME280;51976;47.332;9.404;2023-01-15T08:07:53;91726.47;;;17.63;39.07
65376;BME280;51976;47.332;9.404;2023-01-15T08:10:18;91723.06;;;17.66;39.17
65376;BME280;51976;47.332;9.404;2023-01-15T08:12:44;91724.88;;;17.62;39.23
65376;BME280;51976;47.332;9.404;2023-01-15T08:15:33;91717.84;;;17.61;39.20
65376;BME280;51976;47.332;9.404;2023-01-15T08:18:01;91732.84;;;17.67;38.98
65376;BME280;51976;47.332;9.404;2023-01-15T08:20:27;91737.50;;;17.67;38.80
65376;BME280;51976;47.332;9.404;2023-01-15T08:22:52;91737.38;;;17.63;39.18
65376;BME280;51976;47.332;9.404;2023-01-15T08:25:20;91743.28;;;17.65;38.98
65376;BME280;51976;47.332;9.404;2023-01-15T08:27:46;91739.78;;;17.65;39.16
65376;BME280;51976;47.332;9.404;2023-01-15T08:30:17;91741.25;;;17.62;38.88
65376;BME280;51976;47.332;9.404;2023-01-15T08:32:43;91738.28;;;17.67;39.19
65376;BME280;51976;47.332;9.404;2023-01-15T08:35:09;91734.66;;;17.63;39.18
65376;BME280;51976;47.332;9.404;2023-01-15T08:37:34;91741.69;;;17.64;39.25
65376;BME280;51976;47.332;9.404;2023-01-15T08:40:00;91735.13;;;17.65;38.97
65376;BME280;51976;47.332;9.404;2023-01-15T08:42:25;91728.75;;;17.61;39.00
65376;BME280;51976;47.332;9.404;2023-01-15T08:44:50;91732.72;;;17.64;39.12
65376;BME280;51976;47.332;9.404;2023-01-15T08:47:16;91731.13;;;17.63;39.17
65376;BME280;51976;47.332;9.404;2023-01-15T08:49:43;91730.69;;;17.60;39.10
65376;BME280;51976;47.332;9.404;2023-01-15T08:52:08;91744.31;;;17.60;39.30
65376;BME280;51976;47.332;9.404;2023-01-15T08:54:33;91745.91;;;17.62;39.22
65376;BME280;51976;47.332;9.404;2023-01-15T08:56:59;91737.94;;;17.69;39.18
65376;BME280;51976;47.332;9.404;2023-01-15T08:59:24;91746.81;;;17.66;39.16
65376;BME280;51976;47.332;9.404;2023-01-15T09:01:50;91747.47;;;17.63;38.95
65376;BME280;51976;47.332;9.404;2023-01-15T09:04:17;91754.44;;;17.60;38.88
65376;BME280;51976;47.332;9.404;2023-01-15T09:06:44;91759.09;;;17.59;39.06
65376;BME280;51976;47.332;9.404;2023-01-15T09:09:10;91758.72;;;17.61;39.37
65376;BME280;51976;47.332;9.404;2023-01-15T09:11:36;91777.13;;;17.64;39.14
65376;BME280;51976;47.332;9.404;2023-01-15T09:14:05;91782.13;;;17.62;39.22
65376;BME280;51976;47.332;9.404;2023-01-15T09:16:31;91776.44;;;17.67;38.95
65376;BME280;51976;47.332;9.404;2023-01-15T09:18:57;91780.66;;;17.65;39.06
65376;BME280;51976;47.332;9.404;2023-01-15T09:21:22;91783.03;;;17.66;39.22
65376;BME280;51976;47.332;9.404;2023-01-15T09:23:48;91786.44;;;17.63;39.23
65376;BME280;51976;47.332;9.404;2023-01-15T09:26:25;91799.25;;;17.63;39.03
65376;BME280;51976;47.332;9.404;2023-01-15T09:28:51;91817.19;;;17.64;39.02
65376;BME280;51976;47.332;9.404;2023-01-15T09:31:17;91818.69;;;17.61;39.17
65376;BME280;51976;47.332;9.404;2023-01-15T09:33:42;91824.59;;;17.63;39.22
65376;BME280;51976;47.332;9.404;2023-01-15T09:36:26;91826.16;;;17.64;39.24
65376;BME280;51976;47.332;9.404;2023-01-15T09:38:53;91839.34;;;17.62;39.18
65376;BME280;51976;47.332;9.404;2023-01-15T09:41:19;91850.25;;;17.62;39.32
65376;BME280;51976;47.332;9.404;2023-01-15T09:44:32;91858.06;;;17.64;38.87
65376;BME280;51976;47.332;9.404;2023-01-15T09:47:08;91888.41;;;17.62;39.22
65376;BME280;51976;47.332;9.404;2023-01-15T09:50:17;91907.03;;;17.60;39.30
65376;BME280;51976;47.332;9.404;2023-01-15T09:53:07;91905.44;;;17.59;39.00
65376;BME280;51976;47.332;9.404;2023-01-15T09:55:41;91919.06;;;17.59;39.37
65376;BME280;51976;47.332;9.404;2023-01-15T09:58:10;91923.84;;;17.62;39.10
65376;BME280;51976;47.332;9.404;2023-01-15T10:00:42;91932.81;;;17.63;39.21
65376;BME280;51976;47.332;9.404;2023-01-15T10:03:22;91945.88;;;17.57;39.18
65376;BME280;51976;47.332;9.404;2023-01-15T10:08:43;91964.25;;;17.60;39.04
65376;BME280;51976;47.332;9.404;2023-01-15T10:11:21;91980.63;;;17.60;38.94
65376;BME280;51976;47.332;9.404;2023-01-15T10:14:14;91990.38;;;17.61;39.08
65376;BME280;51976;47.332;9.404;2023-01-15T10:16:45;92005.13;;;17.60;39.14
65376;BME280;51976;47.332;9.404;2023-01-15T10:19:10;92014.09;;;17.60;39.13
65376;BME280;51976;47.332;9.404;2023-01-15T10:22:02;92029.66;;;17.60;39.23
65376;BME280;51976;47.332;9.404;2023-01-15T10:24:37;92049.53;;;17.60;38.89
65376;BME280;51976;47.332;9.404;2023-01-15T10:27:14;92063.50;;;17.59;39.27
65376;BME280;51976;47.332;9.404;2023-01-15T10:30:00;92083.03;;;17.61;39.28
65376;BME280;51976;47.332;9.404;2023-01-15T10:32:43;92089.72;;;17.64;39.35
65376;BME280;51976;47.332;9.404;2023-01-15T10:35:23;92091.22;;;17.61;39.17
65376;BME280;51976;47.332;9.404;2023-01-15T10:38:12;92105.28;;;17.63;39.35
65376;BME280;51976;47.332;9.404;2023-01-15T10:40:55;92118.91;;;17.63;39.29
65376;BME280;51976;47.332;9.404;2023-01-15T10:43:43;92118.00;;;17.59;39.15
65376;BME280;51976;47.332;9.404;2023-01-15T10:46:14;92138.56;;;17.56;39.18
65376;BME280;51976;47.332;9.404;2023-01-15T10:48:45;92131.88;;;17.54;39.08
65376;BME280;51976;47.332;9.404;2023-01-15T10:51:16;92150.25;;;17.57;39.10
65376;BME280;51976;47.332;9.404;2023-01-15T10:56:54;92172.63;;;17.63;39.03
65376;BME280;51976;47.332;9.404;2023-01-15T10:59:41;92187.28;;;17.58;39.10
65376;BME280;51976;47.332;9.404;2023-01-15T11:02:31;92186.38;;;17.54;39.13
65376;BME280;51976;47.332;9.404;2023-01-15T11:05:00;92180.91;;;17.54;39.29
65376;BME280;51976;47.332;9.404;2023-01-15T11:07:39;92210.22;;;17.57;39.03
65376;BME280;51976;47.332;9.404;2023-01-15T11:10:07;92212.72;;;17.62;39.19
65376;BME280;51976;47.332;9.404;2023-01-15T11:12:38;92203.75;;;17.62;39.27
65376;BME280;51976;47.332;9.404;2023-01-15T11:15:25;92213.06;;;17.60;39.02
65376;BME280;51976;47.332;9.404;2023-01-15T11:18:13;92222.72;;;17.58;39.08
65376;BME280;51976;47.332;9.404;2023-01-15T11:21:01;92243.72;;;17.57;39.16
65376;BME280;51976;47.332;9.404;2023-01-15T11:23:27;92224.97;;;17.56;39.28
65376;BME280;51976;47.332;9.404;2023-01-15T11:25:58;92224.75;;;17.61;39.01
65376;BME280;51976;47.332;9.404;2023-01-15T11:28:38;92226.91;;;17.55;39.44
65376;BME280;51976;47.332;9.404;2023-01-15T11:31:06;92221.13;;;17.57;39.16
65376;BME280;51976;47.332;9.404;2023-01-15T11:33:32;92217.72;;;17.60;39.02
65376;BME280;51976;47.332;9.404;2023-01-15T11:36:00;92218.41;;;17.57;39.23
65376;BME280;51976;47.332;9.404;2023-01-15T11:38:28;92217.72;;;17.60;39.13
65376;BME280;51976;47.332;9.404;2023-01-15T11:41:00;92229.88;;;17.63;39.09
65376;BME280;51976;47.332;9.404;2023-01-15T11:43:29;92229.06;;;17.62;38.87
65376;BME280;51976;47.332;9.404;2023-01-15T11:46:23;92233.28;;;17.59;39.04
65376;BME280;51976;47.332;9.404;2023-01-15T11:49:09;92234.88;;;17.60;38.87
65376;BME280;51976;47.332;9.404;2023-01-15T11:51:57;92225.56;;;17.62;39.07
65376;BME280;51976;47.332;9.404;2023-01-15T11:54:24;92226.50;;;17.66;39.02
65376;BME280;51976;47.332;9.404;2023-01-15T11:56:50;92234.19;;;17.64;39.04
65376;BME280;51976;47.332;9.404;2023-01-15T11:59:18;92227.47;;;17.61;39.08
65376;BME280;51976;47.332;9.404;2023-01-15T12:01:52;92232.75;;;17.66;38.99
65376;BME280;51976;47.332;9.404;2023-01-15T12:04:40;92238.06;;;17.63;38.93
65376;BME280;51976;47.332;9.404;2023-01-15T12:07:12;92247.16;;;17.67;39.02
65376;BME280;51976;47.332;9.404;2023-01-15T12:10:06;92247.16;;;17.67;38.86
65376;BME280;51976;47.332;9.404;2023-01-15T12:15:41;92259.06;;;17.62;39.07
65376;BME280;51976;47.332;9.404;2023-01-15T12:21:51;92276.22;;;17.63;39.01
65376;BME280;51976;47.332;9.404;2023-01-15T12:24:45;92279.72;;;17.63;39.04
65376;BME280;51976;47.332;9.404;2023-01-15T12:27:48;92290.50;;;17.59;38.95
65376;BME280;51976;47.332;9.404;2023-01-15T12:30:23;92295.97;;;17.59;39.06
65376;BME280;51976;47.332;9.404;2023-01-15T12:33:00;92299.28;;;17.65;39.16
65376;BME280;51976;47.332;9.404;2023-01-15T12:35:30;92306.97;;;17.63;39.11
65376;BME280;51976;47.332;9.404;2023-01-15T12:40:49;92320.94;;;17.62;38.91
65376;BME280;51976;47.332;9.404;2023-01-15T12:43:22;92315.84;;;17.60;39.04
65376;BME280;51976;47.332;9.404;2023-01-15T12:46:18;92324.69;;;17.57;39.02
65376;BME280;51976;47.332;9.404;2023-01-15T12:48:51;92322.88;;;17.61;38.97
65376;BME280;51976;47.332;9.404;2023-01-15T12:51:28;92324.47;;;17.62;38.91
65376;BME280;51976;47.332;9.404;2023-01-15T12:54:01;92323.66;;;17.62;38.91
65376;BME280;51976;47.332;9.404;2023-01-15T12:56:47;92324.94;;;17.64;38.62
65376;BME280;51976;47.332;9.404;2023-01-15T12:59:29;92323.66;;;17.62;38.98
65376;BME280;51976;47.332;9.404;2023-01-15T13:02:23;92324.47;;;17.62;38.82
65376;BME280;51976;47.332;9.404;2023-01-15T13:04:57;92329.91;;;17.62;38.94
65376;BME280;51976;47.332;9.404;2023-01-15T13:07:35;92329.59;;;17.64;38.80
65376;BME280;51976;47.332;9.404;2023-01-15T13:10:12;92342.41;;;17.63;38.77
65376;BME280;51976;47.332;9.404;2023-01-15T13:12:39;92348.66;;;17.64;38.77
65376;BME280;51976;47.332;9.404;2023-01-15T13:15:05;92350.59;;;17.63;38.91
65376;BME280;51976;47.332;9.404;2023-01-15T13:17:49;92351.09;;;17.65;38.90
65376;BME280;51976;47.332;9.404;2023-01-15T13:20:34;92356.84;;;17.64;38.70
65376;BME280;51976;47.332;9.404;2023-01-15T13:23:25;92368.22;;;17.66;38.65
65376;BME280;51976;47.332;9.404;2023-01-15T13:26:09;92360.06;;;17.66;38.69
65376;BME280;51976;47.332;9.404;2023-01-15T13:28:56;92363.44;;;17.63;38.86
65376;BME280;51976;47.332;9.404;2023-01-15T13:31:49;92360.38;;;17.64;38.69
65376;BME280;51976;47.332;9.404;2023-01-15T13:35:04;92356.03;;;17.63;38.68
65376;BME280;51976;47.332;9.404;2023-01-15T13:37:24;92364.38;;;17.67;38.78
65376;BME280;51976;47.332;9.404;2023-01-15T13:39:55;92368.53;;;17.64;38.81